Time;durP1;ratioP1;P1;durP2;ratioP2;P2;SDS_P1;SDS_P2;PMS_P1;PMS_P2;Temp;Humidity;BMP_temperature;BMP_pressure;BME280_temperature;BME280_humidity;BME280_pressure;Samples;Min_cycle;Max_cycle;Signal;HPM_P1;HPM_P2
2023/10/24 00:08:51;;;;;;;2.03;1.77;;;;;;;16.86;72.73;100126.19;20963962;28;20496;-72
2023/10/24 00:18:53;;;;;;;1.95;1.67;;;;;;;16.87;72.56;100114.44;20963142;28;20076;-71
2023/10/24 00:28:55;;;;;;;2.25;2.00;;;;;;;16.86;72.70;100092.09;20960451;28;20056;-71
2023/10/24 00:38:56;;;;;;;2.20;2.00;;;;;;;16.81;73.10;100081.78;20960704;28;20044;-71
2023/10/24 00:48:58;;;;;;;2.75;2.20;;;;;;;16.76;73.54;100075.16;20958800;28;20044;-71
2023/10/24 00:59:02;;;;;;;2.28;2.08;;;;;;;16.74;73.83;100058.34;20957930;28;20447;-71
2023/10/24 01:09:03;;;;;;;2.47;2.20;;;;;;;16.59;74.21;100029.28;20940902;28;20045;-71
2023/10/24 01:19:05;;;;;;;2.58;1.90;;;;;;;16.67;74.55;100037.44;20958242;28;20106;-71
2023/10/24 01:29:08;;;;;;;1.98;1.88;;;;;;;16.67;74.62;100020.47;20958232;28;20737;-71
2023/10/24 01:39:11;;;;;;;2.10;1.90;;;;;;;16.62;74.93;100002.09;20957081;28;20048;-72
2023/10/24 01:49:13;;;;;;;2.40;2.20;;;;;;;16.61;75.10;99986.16;20955162;28;20117;-71
2023/10/24 01:59:15;;;;;;;2.15;2.03;;;;;;;16.60;75.42;99977.22;20956913;28;20137;-71
2023/10/24 02:09:17;;;;;;;2.20;1.95;;;;;;;16.63;75.61;99960.81;20954561;28;20048;-71
2023/10/24 02:19:19;;;;;;;2.20;1.80;;;;;;;16.64;75.50;99951.75;20966337;28;20048;-71
2023/10/24 02:29:20;;;;;;;1.80;1.67;;;;;;;16.69;75.61;99937.88;20971463;28;20044;-71
2023/10/24 02:39:22;;;;;;;1.90;1.70;;;;;;;16.61;75.58;99908.22;20970327;28;20181;-71
2023/10/24 02:49:24;;;;;;;2.05;1.75;;;;;;;16.74;75.52;99907.81;20985048;28;20408;-70
2023/10/24 02:59:26;;;;;;;1.60;1.50;;;;;;;16.75;75.60;99896.94;20969540;28;20716;-71
2023/10/24 03:09:27;;;;;;;1.77;1.52;;;;;;;16.76;75.80;99895.94;20969221;28;20186;-71
2023/10/24 03:19:32;;;;;;;1.90;1.70;;;;;;;16.76;75.84;99885.19;20966030;28;20060;-72
2023/10/24 03:29:35;;;;;;;1.60;1.50;;;;;;;16.78;75.73;99895.75;20966407;28;20531;-72
2023/10/24 03:39:37;;;;;;;1.95;1.55;;;;;;;16.77;76.12;99886.00;20966072;28;20564;-72
2023/10/24 03:49:39;;;;;;;2.17;1.63;;;;;;;16.75;76.18;99883.50;20965514;28;20045;-72
2023/10/24 03:59:41;;;;;;;1.75;1.60;;;;;;;16.77;76.21;99886.00;20964841;28;20048;-71
2023/10/24 04:09:42;;;;;;;1.70;1.52;;;;;;;16.77;76.39;99891.38;20963873;28;20106;-71
2023/10/24 04:19:45;;;;;;;1.85;1.75;;;;;;;16.77;76.55;99884.19;20960995;28;20048;-72
2023/10/24 04:29:47;;;;;;;1.40;1.30;;;;;;;16.78;76.86;99877.81;20962297;28;20037;-71
2023/10/24 04:39:48;;;;;;;1.63;1.40;;;;;;;16.79;76.95;99871.44;20960336;28;20161;-71
2023/10/24 04:49:50;;;;;;;1.77;1.42;;;;;;;16.80;77.09;99874.97;20975845;28;20052;-72
2023/10/24 04:59:52;;;;;;;1.55;1.40;;;;;;;16.81;77.11;99877.50;20959832;28;20416;-72
2023/10/24 05:09:54;;;;;;;1.67;1.20;;;;;;;16.82;77.19;99846.94;20959394;28;20048;-72
2023/10/24 05:20:01;;;;;;;1.95;1.08;;;;;;;16.86;77.00;99838.56;20956756;28;20052;-71
2023/10/24 05:30:03;;;;;;;2.05;1.20;;;;;;;16.83;77.24;99820.91;20958059;28;20050;-72
2023/10/24 05:40:06;;;;;;;1.25;1.15;;;;;;;16.82;77.19;99813.84;20956965;28;20060;-71
2023/10/24 05:50:08;;;;;;;1.45;1.00;;;;;;;16.84;77.24;99808.31;20956616;28;20130;-71
2023/10/24 06:00:10;;;;;;;2.70;1.10;;;;;;;16.80;77.46;99814.00;20956540;28;20052;-72
2023/10/24 06:10:12;;;;;;;0.80;0.80;;;;;;;16.79;77.62;99816.81;20956657;28;20048;-71
2023/10/24 06:20:14;;;;;;;2.67;1.30;;;;;;;16.75;77.83;99828.88;20955982;28;20052;-71
2023/10/24 06:30:16;;;;;;;1.20;1.10;;;;;;;16.74;77.90;99837.94;20953725;28;20451;-71
2023/10/24 06:40:18;;;;;;;1.75;1.10;;;;;;;16.68;78.05;99836.75;20954225;28;20048;-71
2023/10/24 06:50:20;;;;;;;1.80;1.05;;;;;;;16.73;77.90;99844.31;20954982;28;20053;-71
2023/10/24 07:00:22;;;;;;;1.17;1.00;;;;;;;16.72;78.02;99839.94;20956258;28;20117;-71
2023/10/24 07:10:24;;;;;;;0.80;0.75;;;;;;;16.70;78.07;99833.88;20968828;28;20052;-71
2023/10/24 07:20:26;;;;;;;0.90;0.70;;;;;;;16.72;78.08;99842.63;20967718;28;20052;-71
2023/10/24 07:30:28;;;;;;;0.90;0.90;;;;;;;16.72;77.96;99829.19;20967419;28;20424;-71
2023/10/24 07:40:29;;;;;;;1.52;1.25;;;;;;;16.82;77.70;99838.03;20966011;28;20060;-71
2023/10/24 07:50:32;;;;;;;1.00;0.90;;;;;;;16.87;77.51;99856.38;20965634;28;20477;-71
2023/10/24 08:00:34;;;;;;;0.93;0.82;;;;;;;16.87;77.31;99835.72;20964970;28;20051;-71
2023/10/24 08:10:36;;;;;;;1.05;0.82;;;;;;;16.89;77.36;99830.19;20964306;28;20489;-72
2023/10/24 08:20:38;;;;;;;1.02;0.90;;;;;;;16.90;77.22;99835.41;20962510;28;20488;-71
2023/10/24 08:30:40;;;;;;;1.13;0.95;;;;;;;16.91;77.11;99834.41;20962324;28;20072;-72
2023/10/24 08:40:42;;;;;;;1.90;1.10;;;;;;;16.91;77.46;99822.81;20959666;28;20052;-70
2023/10/24 08:50:44;;;;;;;2.03;0.90;;;;;;;16.93;77.22;99821.66;20885615;28;20052;-72
2023/10/24 09:00:47;;;;;;;2.45;1.05;;;;;;;16.96;77.26;99820.47;20960625;28;20055;-70
2023/10/24 09:11:06;;;;;;;1.40;1.05;;;;;;;17.00;77.12;99837.19;20928224;28;20528;-72
2023/10/24 09:21:09;;;;;;;1.10;0.98;;;;;;;16.97;76.91;99830.22;20949977;28;20526;-72
2023/10/24 09:31:11;;;;;;;0.75;0.75;;;;;;;17.02;76.96;99824.44;20957708;28;20044;-73
2023/10/24 09:41:14;;;;;;;1.13;0.80;;;;;;;17.02;76.78;99835.19;20958349;28;20059;-73
2023/10/24 09:51:18;;;;;;;0.63;0.63;;;;;;;16.93;76.75;99816.28;20958161;28;20040;-73
2023/10/24 10:01:21;;;;;;;1.20;0.70;;;;;;;17.03;76.61;99836.88;20957612;28;20048;-73
2023/10/24 10:11:26;;;;;;;1.17;0.90;;;;;;;17.05;76.39;99826.81;20957742;28;20078;-74
2023/10/24 10:21:44;;;;;;;0.70;0.70;;;;;;;17.06;76.41;99832.03;20956922;28;20102;-73
2023/10/24 10:31:58;;;;;;;0.80;0.80;;;;;;;17.05;76.29;99816.06;20953138;28;20093;-74
2023/10/24 10:42:49;;;;;;;0.95;0.70;;;;;;;17.09;76.17;99798.59;20885747;28;20420;-74
2023/10/24 10:53:03;;;;;;;0.90;0.63;;;;;;;17.13;75.99;99809.91;20888358;28;20495;-73
2023/10/24 11:03:22;;;;;;;1.80;1.00;;;;;;;17.14;75.99;99812.41;20887823;28;20064;-74
2023/10/24 11:13:34;;;;;;;0.95;0.95;;;;;;;17.08;76.10;99813.03;20887091;28;20053;-74
2023/10/24 11:23:37;;;;;;;0.70;0.70;;;;;;;17.09;76.00;99799.47;20886271;28;20053;-74
2023/10/24 11:33:38;;;;;;;0.85;0.82;;;;;;;17.07;76.20;99785.31;20966423;28;20055;-74
2023/10/24 11:43:40;;;;;;;0.90;0.80;;;;;;;17.10;76.16;99773.41;20966705;28;20049;-73
2023/10/24 11:53:42;;;;;;;1.02;0.93;;;;;;;17.10;76.24;99773.41;20965673;28;20044;-73
2023/10/24 12:03:49;;;;;;;1.00;0.90;;;;;;;17.11;76.30;99764.31;20965190;28;20501;-73
2023/10/24 12:13:50;;;;;;;0.93;0.82;;;;;;;17.20;76.24;99757.97;20964864;28;20044;-74
2023/10/24 12:23:52;;;;;;;1.25;1.00;;;;;;;17.24;76.19;99764.75;20963940;28;20071;-73
2023/10/24 12:33:54;;;;;;;1.45;1.00;;;;;;;17.22;76.17;99764.03;20962539;28;20416;-73
2023/10/24 12:43:56;;;;;;;1.00;0.77;;;;;;;17.22;76.37;99761.34;20959926;28;20481;-73
2023/10/24 12:53:58;;;;;;;0.90;0.90;;;;;;;17.24;76.27;99766.59;20961302;28;20078;-73
2023/10/24 13:03:59;;;;;;;1.08;0.90;;;;;;;17.27;76.18;99752.00;20960824;28;20747;-73
2023/10/24 13:14:01;;;;;;;1.85;1.00;;;;;;;17.30;76.11;99746.28;20959852;28;20052;-71
2023/10/24 13:24:03;;;;;;;1.52;0.90;;;;;;;17.32;75.93;99738.91;20959135;28;20058;-71
2023/10/24 13:34:05;;;;;;;1.58;1.10;;;;;;;17.32;76.13;99728.13;20958983;28;20076;-71
2023/10/24 13:44:27;;;;;;;1.13;0.95;;;;;;;17.33;76.20;99740.59;20957842;28;20135;-71
2023/10/24 13:54:29;;;;;;;1.38;0.80;;;;;;;17.30;76.06;99738.22;20956240;28;20056;-71
2023/10/24 14:04:31;;;;;;;0.93;0.75;;;;;;;17.30;76.05;99739.03;20957782;28;20057;-71
2023/10/24 14:14:33;;;;;;;1.38;1.00;;;;;;;17.31;76.03;99732.66;20966568;28;20053;-71
2023/10/24 14:24:34;;;;;;;1.13;0.80;;;;;;;17.28;76.24;99724.09;20972748;28;20416;-71
2023/10/24 14:34:36;;;;;;;1.63;1.00;;;;;;;17.28;76.21;99716.00;20970867;28;20566;-72
2023/10/24 14:44:39;;;;;;;0.85;0.82;;;;;;;17.29;76.38;99720.38;20971115;28;20044;-72
2023/10/24 14:54:42;;;;;;;0.95;0.90;;;;;;;17.27;76.61;99719.72;20970946;28;20511;-71
2023/10/24 15:04:44;;;;;;;1.48;0.80;;;;;;;17.25;76.81;99718.03;20969936;28;20048;-71
2023/10/24 15:14:45;;;;;;;1.17;0.90;;;;;;;17.23;76.97;99741.56;20969827;28;20420;-71
2023/10/24 15:24:47;;;;;;;1.67;0.85;;;;;;;17.23;77.20;99756.84;20968518;28;20072;-71
2023/10/24 15:34:49;;;;;;;2.17;1.50;;;;;;;17.20;77.34;99747.22;20967936;28;20524;-72
2023/10/24 15:44:56;;;;;;;1.17;1.00;;;;;;;17.19;77.63;99740.16;20966495;28;20048;-71
2023/10/24 15:54:58;;;;;;;0.77;0.60;;;;;;;17.15;77.82;99730.72;20964948;28;20049;-72
2023/10/24 16:05:20;;;;;;;1.20;0.90;;;;;;;17.15;77.66;99716.44;20965440;28;20067;-71
2023/10/24 16:15:22;;;;;;;1.60;0.73;;;;;;;17.15;77.61;99717.28;20964744;28;20044;-71
2023/10/24 16:25:24;;;;;;;0.57;0.57;;;;;;;17.10;77.68;99715.09;20961669;28;20493;-71
2023/10/24 16:35:25;;;;;;;2.40;0.80;;;;;;;17.03;77.83;99715.88;20960972;28;20433;-71
2023/10/24 16:45:27;;;;;;;0.82;0.60;;;;;;;16.96;77.69;99721.88;20961829;28;20769;-71
2023/10/24 16:55:32;;;;;;;1.20;0.60;;;;;;;16.92;77.71;99736.63;20961289;28;20080;-71
2023/10/24 17:05:39;;;;;;;0.52;0.45;;;;;;;16.89;77.67;99738.78;20960662;28;20508;-71
2023/10/24 17:15:40;;;;;;;0.63;0.50;;;;;;;16.84;77.68;99741.97;20960377;28;20055;-71
2023/10/24 17:25:42;;;;;;;0.85;0.68;;;;;;;16.81;77.62;99737.72;20957343;28;20055;-71
2023/10/24 17:35:44;;;;;;;0.95;0.73;;;;;;;16.82;77.59;99735.91;20958616;28;20068;-71
2023/10/24 17:45:46;;;;;;;0.57;0.57;;;;;;;16.67;77.63;99720.31;20957148;28;20044;-71
2023/10/24 17:55:47;;;;;;;0.60;0.60;;;;;;;16.77;77.97;99735.50;20958189;28;20489;-72
2023/10/24 18:05:50;;;;;;;0.60;0.60;;;;;;;16.80;77.82;99740.59;20957511;28;20048;-71
2023/10/24 18:15:55;;;;;;;0.98;0.70;;;;;;;16.82;77.72;99741.28;20956863;28;20052;-71
2023/10/24 18:25:57;;;;;;;0.60;0.60;;;;;;;16.81;77.68;99744.97;20956610;28;20507;-71
2023/10/24 18:36:02;;;;;;;1.55;0.80;;;;;;;16.82;77.66;99736.72;20955817;28;20048;-71
2023/10/24 18:46:05;;;;;;;1.17;1.05;;;;;;;16.78;77.78;99726.44;20873435;28;20053;-72
2023/10/24 18:56:07;;;;;;;0.60;0.60;;;;;;;16.83;77.45;99732.22;20874694;28;20541;-72
2023/10/24 19:06:10;;;;;;;0.98;0.65;;;;;;;16.80;77.44;99727.97;20887927;28;20052;-72
2023/10/24 19:16:12;;;;;;;0.85;0.70;;;;;;;16.79;77.47;99728.13;20969665;28;20127;-72
2023/10/24 19:26:14;;;;;;;1.17;0.80;;;;;;;16.71;77.48;99717.31;20968359;28;20055;-72
2023/10/24 19:36:16;;;;;;;0.80;0.60;;;;;;;16.77;77.35;99735.50;20967535;28;20054;-71
2023/10/24 19:46:20;;;;;;;1.17;0.88;;;;;;;16.75;77.25;99734.81;20965337;28;20055;-72
2023/10/24 19:56:22;;;;;;;0.75;0.75;;;;;;;16.75;77.18;99743.75;20966726;28;20048;-72
2023/10/24 20:06:29;;;;;;;0.98;0.80;;;;;;;16.73;77.18;99750.25;20964113;28;20856;-71
2023/10/24 20:16:33;;;;;;;0.82;0.70;;;;;;;16.71;77.12;99745.06;20979114;28;20048;-71
2023/10/24 20:26:36;;;;;;;0.98;0.70;;;;;;;16.70;77.04;99746.06;20963727;28;20123;-71
2023/10/24 20:36:38;;;;;;;1.25;0.88;;;;;;;16.69;76.83;99733.63;20962787;28;20492;-71
2023/10/24 20:46:40;;;;;;;0.93;0.60;;;;;;;16.66;76.96;99724.00;20962066;28;20048;-71
2023/10/24 20:56:41;;;;;;;1.27;0.80;;;;;;;16.65;76.76;99722.31;20961453;28;20044;-71
2023/10/24 21:06:43;;;;;;;0.82;0.70;;;;;;;16.63;77.13;99724.31;20958931;28;20075;-72
2023/10/24 21:16:46;;;;;;;1.00;0.70;;;;;;;16.60;76.74;99734.56;20959752;28;20062;-72
2023/10/24 21:26:48;;;;;;;0.70;0.57;;;;;;;16.52;76.58;99724.59;20959282;28;20136;-71
2023/10/24 21:36:50;;;;;;;0.98;0.70;;;;;;;16.56;76.64;99736.72;20958270;28;20420;-72
2023/10/24 21:46:52;;;;;;;2.22;1.00;;;;;;;16.49;76.50;99722.22;20958377;28;20071;-71
2023/10/24 21:56:54;;;;;;;1.35;0.75;;;;;;;16.47;76.51;99726.91;20958147;28;20803;-71
2023/10/24 22:06:56;;;;;;;1.25;0.80;;;;;;;16.43;76.49;99717.47;20957698;28;20106;-71
2023/10/24 22:16:58;;;;;;;2.70;0.80;;;;;;;16.40;76.31;99715.09;20957235;28;20048;-72
2023/10/24 22:26:59;;;;;;;1.40;0.88;;;;;;;16.38;76.26;99710.72;20954911;28;20048;-71
2023/10/24 22:37:01;;;;;;;0.88;0.80;;;;;;;16.38;76.28;99705.34;20967059;28;20048;-72
2023/10/24 22:47:03;;;;;;;1.02;0.70;;;;;;;16.36;75.91;99703.81;20970090;28;20067;-71
2023/10/24 22:57:05;;;;;;;1.50;1.00;;;;;;;16.37;76.01;99717.09;20971133;28;20055;-71
2023/10/24 23:07:07;;;;;;;1.45;0.73;;;;;;;16.35;75.76;99716.41;20970075;28;20523;-71
2023/10/24 23:17:08;;;;;;;1.55;0.80;;;;;;;16.36;75.83;99723.47;20969537;28;20059;-68
2023/10/24 23:27:10;;;;;;;1.63;0.90;;;;;;;16.41;75.62;99720.28;20969083;28;20105;-72
2023/10/24 23:37:12;;;;;;;1.27;0.52;;;;;;;16.40;75.51;99725.84;20967701;28;20436;-72
2023/10/24 23:47:14;;;;;;;1.73;0.80;;;;;;;16.38;75.26;99731.34;20965886;28;20484;-71
2023/10/24 23:57:16;;;;;;;1.23;0.70;;;;;;;16.37;75.26;99735.03;20966410;28;20047;-71
